createdAt,value
2023-03-28T00:00:41.806Z,99.90
2023-03-28T00:03:08.765Z,99.90
2023-03-28T00:05:40.193Z,99.90
2023-03-28T00:08:08.046Z,99.90
2023-03-28T00:10:34.993Z,99.90
2023-03-28T00:13:01.812Z,99.90
2023-03-28T00:15:28.722Z,99.90
2023-03-28T00:17:55.553Z,99.90
2023-03-28T00:20:22.471Z,99.90
2023-03-28T00:22:49.477Z,99.90
2023-03-28T00:25:16.315Z,99.90
2023-03-28T00:27:43.059Z,99.90
2023-03-28T00:30:10.973Z,99.90
2023-03-28T00:32:37.914Z,99.90
2023-03-28T00:35:05.095Z,99.90
2023-03-28T00:37:32.230Z,99.90
2023-03-28T00:40:01.843Z,99.90
2023-03-28T00:42:28.748Z,99.90
2023-03-28T00:44:57.152Z,99.90
2023-03-28T00:47:45.580Z,99.90
2023-03-28T00:50:27.435Z,99.90
2023-03-28T00:53:05.098Z,99.90
2023-03-28T00:55:39.311Z,99.90
2023-03-28T00:58:10.412Z,99.90
2023-03-28T01:00:41.302Z,99.90
2023-03-28T01:03:13.563Z,99.90
2023-03-28T01:05:44.569Z,99.90
2023-03-28T01:08:24.012Z,99.90
2023-03-28T01:10:51.193Z,99.90
2023-03-28T01:13:24.697Z,99.90
2023-03-28T01:15:52.053Z,99.90
2023-03-28T01:18:23.822Z,99.90
2023-03-28T01:21:05.915Z,99.90
2023-03-28T01:23:44.504Z,99.90
2023-03-28T01:26:39.300Z,99.90
2023-03-28T01:29:46.121Z,99.90
2023-03-28T01:32:49.385Z,99.90
2023-03-28T01:35:29.050Z,99.90
2023-03-28T01:38:17.587Z,99.90
2023-03-28T01:40:59.145Z,99.90
2023-03-28T01:43:36.963Z,99.90
2023-03-28T01:46:21.336Z,99.90
2023-03-28T01:49:06.496Z,99.90
2023-03-28T01:51:53.471Z,99.90
2023-03-28T01:54:35.423Z,99.90
2023-03-28T01:57:21.467Z,99.90
2023-03-28T01:59:56.797Z,99.90
2023-03-28T02:02:36.857Z,99.90
2023-03-28T02:05:21.242Z,99.90
2023-03-28T02:07:49.962Z,99.90
2023-03-28T02:10:20.248Z,99.90
2023-03-28T02:12:59.157Z,99.90
2023-03-28T02:15:50.757Z,99.90
2023-03-28T02:18:31.403Z,99.90
2023-03-28T02:21:24.760Z,99.90
2023-03-28T02:24:25.864Z,99.90
2023-03-28T02:27:05.313Z,99.90
2023-03-28T02:29:42.274Z,99.90
2023-03-28T02:32:17.536Z,99.90
2023-03-28T02:34:45.626Z,99.90
2023-03-28T02:37:49.477Z,99.90
2023-03-28T02:40:51.554Z,99.90
2023-03-28T02:43:26.617Z,99.90
2023-03-28T02:45:56.203Z,99.90
2023-03-28T02:48:32.291Z,99.90
2023-03-28T02:51:11.152Z,99.90
2023-03-28T02:53:44.787Z,99.90
2023-03-28T02:56:21.817Z,99.90
2023-03-28T02:59:38.621Z,99.90
2023-03-28T03:02:05.557Z,99.90
2023-03-28T03:04:32.334Z,99.90
2023-03-28T03:07:02.050Z,99.90
2023-03-28T03:09:30.910Z,99.90
2023-03-28T03:11:57.643Z,99.90
2023-03-28T03:14:24.465Z,99.90
2023-03-28T03:16:52.965Z,99.90
2023-03-28T03:19:19.789Z,99.90
2023-03-28T03:21:46.575Z,99.90
2023-03-28T03:24:14.376Z,99.90
2023-03-28T03:26:43.195Z,99.90
2023-03-28T03:29:15.670Z,99.90
2023-03-28T03:31:42.576Z,99.90
2023-03-28T03:34:21.587Z,99.90
2023-03-28T03:36:54.748Z,99.90
2023-03-28T03:39:22.239Z,99.90
2023-03-28T03:41:48.981Z,99.90
2023-03-28T03:44:15.946Z,99.90
2023-03-28T03:46:42.810Z,99.90
2023-03-28T03:49:10.187Z,99.90
2023-03-28T03:51:38.870Z,99.90
2023-03-28T03:54:06.644Z,99.90
2023-03-28T03:56:39.323Z,99.90
2023-03-28T03:59:06.332Z,99.90
2023-03-28T04:01:36.194Z,99.90
2023-03-28T04:04:32.260Z,99.90
2023-03-28T04:07:04.969Z,99.90
2023-03-28T04:09:32.841Z,99.90
2023-03-28T04:12:03.385Z,99.90
2023-03-28T04:14:31.685Z,99.90
2023-03-28T04:17:21.259Z,99.90
2023-03-28T04:19:49.656Z,99.90
2023-03-28T04:22:18.403Z,99.90
2023-03-28T04:24:53.453Z,99.90
2023-03-28T04:27:34.907Z,99.90
2023-03-28T04:30:03.863Z,99.90
2023-03-28T04:32:54.385Z,99.90
2023-03-28T04:35:25.986Z,99.90
2023-03-28T04:37:53.946Z,99.90
2023-03-28T04:40:22.285Z,99.90
2023-03-28T04:42:59.667Z,99.90
2023-03-28T04:45:34.010Z,99.90
2023-03-28T04:48:11.277Z,99.90
2023-03-28T04:50:39.015Z,99.90
2023-03-28T04:53:05.956Z,99.90
2023-03-28T04:55:33.022Z,99.90
2023-03-28T04:58:05.420Z,99.90
2023-03-28T05:00:33.039Z,99.90
2023-03-28T05:03:00.371Z,99.90
2023-03-28T05:05:30.842Z,99.90
2023-03-28T05:07:58.846Z,99.90
2023-03-28T05:10:26.821Z,99.90
2023-03-28T05:12:58.686Z,99.90
2023-03-28T05:15:26.641Z,99.90
2023-03-28T05:18:12.089Z,99.90
2023-03-28T05:20:39.635Z,99.90
2023-03-28T05:23:06.457Z,99.90
2023-03-28T05:25:36.591Z,99.90
2023-03-28T05:28:04.403Z,99.90
2023-03-28T05:30:32.800Z,99.90
2023-03-28T05:33:00.516Z,99.90
2023-03-28T05:35:28.961Z,99.90
2023-03-28T05:37:55.734Z,99.90
2023-03-28T05:40:22.740Z,99.90
2023-03-28T05:42:50.765Z,99.90
2023-03-28T05:45:20.264Z,99.90
2023-03-28T05:48:01.200Z,99.90
2023-03-28T05:50:29.657Z,99.90
2023-03-28T05:53:01.122Z,99.90
2023-03-28T05:55:27.967Z,99.90
2023-03-28T05:57:56.186Z,99.90
2023-03-28T06:00:26.935Z,99.90
2023-03-28T06:02:54.977Z,99.90
2023-03-28T06:05:31.439Z,99.90
2023-03-28T06:07:58.216Z,99.90
2023-03-28T06:10:28.434Z,99.90
2023-03-28T06:13:15.729Z,99.90
2023-03-28T06:15:44.591Z,99.90
2023-03-28T06:18:11.505Z,99.90
2023-03-28T06:20:44.136Z,99.90
2023-03-28T06:23:11.036Z,99.90
2023-03-28T06:25:37.902Z,99.90
2023-03-28T06:28:04.919Z,99.90
2023-03-28T06:30:34.091Z,99.90
2023-03-28T06:33:01.341Z,99.90
2023-03-28T06:35:28.501Z,99.90
2023-03-28T06:37:55.313Z,99.90
2023-03-28T06:40:26.530Z,99.90
2023-03-28T06:42:53.571Z,99.90
2023-03-28T06:45:38.041Z,99.90
2023-03-28T06:48:09.145Z,99.90
2023-03-28T06:50:54.670Z,99.90
2023-03-28T06:53:23.387Z,99.90
2023-03-28T06:55:51.346Z,99.90
2023-03-28T06:58:19.584Z,99.90
2023-03-28T07:00:55.419Z,99.90
2023-03-28T07:03:42.529Z,99.90
2023-03-28T07:06:10.730Z,99.90
2023-03-28T07:08:37.801Z,99.90
2023-03-28T07:11:05.373Z,99.90
2023-03-28T07:13:32.856Z,99.90
2023-03-28T07:16:11.883Z,99.90
2023-03-28T07:18:39.021Z,99.90
2023-03-28T07:21:11.151Z,99.90
2023-03-28T07:23:39.385Z,99.90
2023-03-28T07:26:08.654Z,99.90
2023-03-28T07:28:35.996Z,99.90
2023-03-28T07:31:04.655Z,99.90
2023-03-28T07:33:37.465Z,99.90
2023-03-28T07:36:15.061Z,99.90
2023-03-28T07:38:45.427Z,99.90
2023-03-28T07:41:14.572Z,99.90
2023-03-28T07:43:41.679Z,99.90
2023-03-28T07:46:11.158Z,99.90
2023-03-28T07:48:38.575Z,99.90
2023-03-28T07:51:07.703Z,99.90
2023-03-28T07:53:35.720Z,99.90
2023-03-28T07:56:02.490Z,99.90
2023-03-28T07:58:39.242Z,99.90
2023-03-28T08:01:12.060Z,99.90
2023-03-28T08:03:44.153Z,99.90
2023-03-28T08:06:28.821Z,99.90
2023-03-28T08:08:59.387Z,99.90
2023-03-28T08:11:41.505Z,99.90
2023-03-28T08:14:11.939Z,99.90
2023-03-28T08:16:40.672Z,99.90
2023-03-28T08:19:11.873Z,99.90
2023-03-28T08:22:10.507Z,99.90
2023-03-28T08:24:44.710Z,99.90
2023-03-28T08:27:14.752Z,99.90
2023-03-28T08:29:44.646Z,99.90
2023-03-28T08:32:11.447Z,99.90
2023-03-28T08:34:40.462Z,99.90
2023-03-28T08:37:13.996Z,98.30
2023-03-28T08:39:43.164Z,99.50
2023-03-28T08:42:27.833Z,97.30
2023-03-28T08:45:27.463Z,93.80
2023-03-28T08:48:38.791Z,96.30
2023-03-28T08:51:18.409Z,97.30
2023-03-28T08:54:03.881Z,96.10
2023-03-28T08:56:32.382Z,95.30
2023-03-28T08:59:07.559Z,92.40
2023-03-28T09:01:35.059Z,95.00
2023-03-28T09:04:02.611Z,92.00
2023-03-28T09:06:43.120Z,89.70
2023-03-28T09:09:42.813Z,89.70
2023-03-28T09:12:39.461Z,85.00
2023-03-28T09:15:45.484Z,84.50
2023-03-28T09:18:18.242Z,81.30
2023-03-28T09:21:00.759Z,89.50
2023-03-28T09:24:12.626Z,76.70
2023-03-28T09:27:06.857Z,78.60
2023-03-28T09:29:39.801Z,71.80
2023-03-28T09:32:19.136Z,76.20
2023-03-28T09:34:49.799Z,70.70
2023-03-28T09:37:27.940Z,71.20
2023-03-28T09:39:59.427Z,78.20
2023-03-28T09:43:05.342Z,77.60
2023-03-28T09:46:07.388Z,72.80
2023-03-28T09:49:03.422Z,66.90
2023-03-28T09:51:32.878Z,66.40
2023-03-28T09:54:03.912Z,66.90
2023-03-28T09:56:36.642Z,73.40
2023-03-28T09:59:28.876Z,71.90
2023-03-28T10:01:59.522Z,64.30
2023-03-28T10:04:29.131Z,62.70
2023-03-28T10:07:32.014Z,66.10
2023-03-28T10:10:18.665Z,63.90
2023-03-28T10:12:49.088Z,67.60
2023-03-28T10:15:45.957Z,59.60
2023-03-28T10:18:45.080Z,59.60
2023-03-28T10:21:32.324Z,59.70
2023-03-28T10:24:22.085Z,60.30
2023-03-28T10:27:06.689Z,60.00
2023-03-28T10:29:34.116Z,62.60
2023-03-28T10:32:01.007Z,58.70
2023-03-28T10:34:40.733Z,55.30
2023-03-28T10:37:30.470Z,58.60
2023-03-28T10:40:22.944Z,56.50
2023-03-28T10:43:21.504Z,62.00
2023-03-28T10:46:45.717Z,59.40
2023-03-28T10:49:21.184Z,64.90
2023-03-28T10:52:19.185Z,60.10
2023-03-28T10:55:17.621Z,54.80
2023-03-28T10:58:14.657Z,58.10
2023-03-28T11:01:00.985Z,58.10
2023-03-28T11:04:02.854Z,63.90
2023-03-28T11:06:46.104Z,64.20
2023-03-28T11:09:39.670Z,59.90
2023-03-28T11:13:02.179Z,58.90
2023-03-28T11:15:52.600Z,59.30
2023-03-28T11:18:59.325Z,55.60
2023-03-28T11:21:42.392Z,59.20
2023-03-28T11:24:42.348Z,59.20
2023-03-28T11:27:31.077Z,53.20
2023-03-28T11:30:20.743Z,54.40
2023-03-28T11:33:14.132Z,63.30
2023-03-28T11:35:47.472Z,58.50
2023-03-28T11:38:41.606Z,61.70
2023-03-28T11:41:22.212Z,62.00
2023-03-28T11:44:21.622Z,66.50
2023-03-28T11:46:59.305Z,67.50
2023-03-28T11:49:36.408Z,61.70
2023-03-28T11:52:17.665Z,58.40
2023-03-28T11:54:53.402Z,53.70
2023-03-28T11:57:29.836Z,52.30
2023-03-28T12:00:33.989Z,50.40
2023-03-28T12:03:21.261Z,51.70
2023-03-28T12:06:04.868Z,54.90
2023-03-28T12:08:47.582Z,55.20
2023-03-28T12:11:23.649Z,62.30
2023-03-28T12:14:29.982Z,69.80
2023-03-28T12:17:10.037Z,54.60
2023-03-28T12:19:41.179Z,56.30
2023-03-28T12:22:34.231Z,56.70
2023-03-28T12:25:11.971Z,56.10
2023-03-28T12:27:59.564Z,52.80
2023-03-28T12:30:30.881Z,62.50
2023-03-28T12:33:24.192Z,63.40
2023-03-28T12:36:21.897Z,62.70
2023-03-28T12:39:12.389Z,59.70
2023-03-28T12:41:42.463Z,62.40
2023-03-28T12:44:22.303Z,51.50
2023-03-28T12:46:55.844Z,53.20
2023-03-28T12:49:50.984Z,55.50
2023-03-28T12:52:24.287Z,60.70
2023-03-28T12:55:04.828Z,55.70
2023-03-28T12:57:45.988Z,55.20
2023-03-28T13:00:41.978Z,54.90
2023-03-28T13:03:59.894Z,58.10
2023-03-28T13:06:57.903Z,56.50
2023-03-28T13:09:51.750Z,60.30
2023-03-28T13:12:30.756Z,58.00
2023-03-28T13:15:26.130Z,52.90
2023-03-28T13:18:17.898Z,53.20
2023-03-28T13:20:46.990Z,54.30
2023-03-28T13:23:16.536Z,58.10
2023-03-28T13:25:52.819Z,57.80
2023-03-28T13:28:28.763Z,57.00
2023-03-28T13:31:18.364Z,61.30
2023-03-28T13:34:03.666Z,62.50
2023-03-28T13:36:36.451Z,60.20
2023-03-28T13:39:25.206Z,56.50
2023-03-28T13:41:52.471Z,54.80
2023-03-28T13:44:39.909Z,53.70
2023-03-28T13:47:09.425Z,55.20
2023-03-28T13:49:47.464Z,56.80
2023-03-28T13:52:15.903Z,56.60
2023-03-28T13:54:42.934Z,55.40
2023-03-28T13:57:18.351Z,58.10
2023-03-28T13:59:59.698Z,60.20
2023-03-28T14:02:29.803Z,58.60
2023-03-28T14:05:03.937Z,58.00
2023-03-28T14:07:30.929Z,56.10
2023-03-28T14:09:58.195Z,58.40
2023-03-28T14:12:29.342Z,58.50
2023-03-28T14:15:00.973Z,62.90
2023-03-28T14:17:34.039Z,64.40
2023-03-28T14:20:06.493Z,62.70
2023-03-28T14:22:45.762Z,60.00
2023-03-28T14:25:21.538Z,60.50
2023-03-28T14:27:54.146Z,58.00
2023-03-28T14:30:24.115Z,58.20
2023-03-28T14:33:18.465Z,55.70
2023-03-28T14:35:57.200Z,57.10
2023-03-28T14:38:42.461Z,59.10
2023-03-28T14:41:19.136Z,56.80
2023-03-28T14:43:54.942Z,58.80
2023-03-28T14:46:29.075Z,57.20
2023-03-28T14:48:58.949Z,57.90
2023-03-28T14:51:26.465Z,59.90
2023-03-28T14:53:53.897Z,58.10
2023-03-28T14:56:26.200Z,60.00
2023-03-28T14:58:57.678Z,61.80
2023-03-28T15:01:25.826Z,61.10
2023-03-28T15:04:06.533Z,63.00
2023-03-28T15:06:34.956Z,61.60
2023-03-28T15:09:11.207Z,59.80
2023-03-28T15:11:43.799Z,59.90
2023-03-28T15:14:18.966Z,58.30
2023-03-28T15:16:47.212Z,59.50
2023-03-28T15:19:22.159Z,57.00
2023-03-28T15:21:55.476Z,55.80
2023-03-28T15:24:24.827Z,56.40
2023-03-28T15:26:55.727Z,58.00
2023-03-28T15:29:25.410Z,57.80
2023-03-28T15:31:59.775Z,60.00
2023-03-28T15:34:27.839Z,60.80
2023-03-28T15:37:03.003Z,63.30
2023-03-28T15:39:32.683Z,63.80
2023-03-28T15:42:21.356Z,60.70
2023-03-28T15:44:56.936Z,60.40
2023-03-28T15:47:26.608Z,59.40
2023-03-28T15:50:03.313Z,63.00
2023-03-28T15:52:31.225Z,65.60
2023-03-28T15:55:01.076Z,63.50
2023-03-28T15:57:30.136Z,61.00
2023-03-28T15:59:58.336Z,62.00
2023-03-28T16:02:25.201Z,60.60
2023-03-28T16:05:06.825Z,60.30
2023-03-28T16:07:54.501Z,61.30
2023-03-28T16:10:24.232Z,63.50
2023-03-28T16:13:14.307Z,64.00
2023-03-28T16:15:54.625Z,62.00
2023-03-28T16:18:34.380Z,64.20
2023-03-28T16:21:03.876Z,63.30
2023-03-28T16:23:30.729Z,64.30
2023-03-28T16:25:57.513Z,64.70
2023-03-28T16:28:24.261Z,65.80
2023-03-28T16:30:52.925Z,66.70
2023-03-28T16:33:19.866Z,66.10
2023-03-28T16:35:46.621Z,66.00
2023-03-28T16:38:13.399Z,65.90
2023-03-28T16:40:40.741Z,68.30
2023-03-28T16:43:08.042Z,65.00
2023-03-28T16:45:35.419Z,65.40
2023-03-28T16:48:02.233Z,66.10
2023-03-28T16:50:29.075Z,68.20
2023-03-28T16:52:55.801Z,69.40
2023-03-28T16:55:23.751Z,68.70
2023-03-28T16:57:50.693Z,67.40
2023-03-28T17:00:20.865Z,66.90
2023-03-28T17:02:48.002Z,67.60
2023-03-28T17:05:16.969Z,66.90
2023-03-28T17:07:43.722Z,66.30
2023-03-28T17:10:11.105Z,66.80
2023-03-28T17:12:37.902Z,67.90
2023-03-28T17:15:06.509Z,69.10
2023-03-28T17:17:33.613Z,69.70
2023-03-28T17:20:01.098Z,69.60
2023-03-28T17:22:27.918Z,70.10
2023-03-28T17:24:56.865Z,71.10
2023-03-28T17:27:23.744Z,71.90
2023-03-28T17:29:51.691Z,70.00
2023-03-28T17:32:18.773Z,70.30
2023-03-28T17:34:46.303Z,70.80
2023-03-28T17:37:13.177Z,70.80
2023-03-28T17:39:40.862Z,71.90
2023-03-28T17:42:09.059Z,72.50
2023-03-28T17:44:35.873Z,73.00
2023-03-28T17:47:02.965Z,73.40
2023-03-28T17:49:29.811Z,75.10
2023-03-28T17:51:57.163Z,75.50
2023-03-28T17:54:25.263Z,76.30
2023-03-28T17:56:52.950Z,76.10
2023-03-28T17:59:19.809Z,76.70
2023-03-28T18:01:46.664Z,77.10
2023-03-28T18:04:13.640Z,78.10
2023-03-28T18:06:58.845Z,79.00
2023-03-28T18:09:25.956Z,81.00
2023-03-28T18:11:53.003Z,82.60
2023-03-28T18:14:19.988Z,82.80
2023-03-28T18:16:46.872Z,84.70
2023-03-28T18:19:17.688Z,86.00
2023-03-28T18:21:45.838Z,87.20
2023-03-28T18:24:12.713Z,88.10
2023-03-28T18:26:39.562Z,88.90
2023-03-28T18:29:06.947Z,89.50
2023-03-28T18:31:34.140Z,90.20
2023-03-28T18:34:03.558Z,90.80
2023-03-28T18:36:31.049Z,91.70
2023-03-28T18:38:57.880Z,91.90
2023-03-28T18:41:25.120Z,92.80
2023-03-28T18:43:52.245Z,92.60
2023-03-28T18:46:19.060Z,93.00
2023-03-28T18:48:45.978Z,93.30
2023-03-28T18:51:13.680Z,93.40
2023-03-28T18:53:40.496Z,94.00
2023-03-28T18:56:09.110Z,93.90
2023-03-28T18:58:39.180Z,94.00
2023-03-28T19:01:08.764Z,93.90
2023-03-28T19:03:40.474Z,93.70
2023-03-28T19:06:09.234Z,93.60
2023-03-28T19:08:36.270Z,93.90
2023-03-28T19:11:08.795Z,94.00
2023-03-28T19:13:35.887Z,94.40
2023-03-28T19:16:06.893Z,94.40
2023-03-28T19:18:36.962Z,94.30
2023-03-28T19:21:04.054Z,94.40
2023-03-28T19:23:30.777Z,94.70
2023-03-28T19:25:57.951Z,94.60
2023-03-28T19:28:24.899Z,94.60
2023-03-28T19:31:06.882Z,94.80
2023-03-28T19:33:34.188Z,94.40
2023-03-28T19:36:01.383Z,94.40
2023-03-28T19:38:30.705Z,94.50
2023-03-28T19:40:59.059Z,94.30
2023-03-28T19:43:26.872Z,94.10
2023-03-28T19:45:53.766Z,94.20
2023-03-28T19:48:20.548Z,94.20
2023-03-28T19:50:50.330Z,94.80
2023-03-28T19:53:17.277Z,94.50
2023-03-28T19:55:51.398Z,94.40
2023-03-28T19:58:18.196Z,94.80
2023-03-28T20:00:44.923Z,94.70
2023-03-28T20:03:11.863Z,94.90
2023-03-28T20:05:46.541Z,94.60
2023-03-28T20:08:13.841Z,94.90
2023-03-28T20:10:42.531Z,94.80
2023-03-28T20:13:09.986Z,95.40
2023-03-28T20:15:41.459Z,95.60
2023-03-28T20:18:10.172Z,95.40
2023-03-28T20:20:43.268Z,95.20
2023-03-28T20:23:11.744Z,95.10
2023-03-28T20:25:38.543Z,95.20
2023-03-28T20:28:05.420Z,95.30
2023-03-28T20:30:32.538Z,95.10
2023-03-28T20:32:59.447Z,95.50
2023-03-28T20:35:27.164Z,95.60
2023-03-28T20:37:54.642Z,95.40
2023-03-28T20:40:25.190Z,95.40
2023-03-28T20:42:52.593Z,95.70
2023-03-28T20:45:25.883Z,96.00
2023-03-28T20:47:58.615Z,95.90
2023-03-28T20:50:33.627Z,96.00
2023-03-28T20:53:02.006Z,96.00
2023-03-28T20:55:29.642Z,96.20
2023-03-28T20:57:57.018Z,96.30
2023-03-28T21:00:24.848Z,96.10
2023-03-28T21:02:53.697Z,96.10
2023-03-28T21:05:22.392Z,96.50
2023-03-28T21:07:49.890Z,96.80
2023-03-28T21:10:16.787Z,96.80
2023-03-28T21:12:43.940Z,96.80
2023-03-28T21:15:11.661Z,97.20
2023-03-28T21:17:39.013Z,97.20
2023-03-28T21:20:07.903Z,97.30
2023-03-28T21:22:34.843Z,97.40
2023-03-28T21:25:02.102Z,97.70
2023-03-28T21:27:28.942Z,97.60
2023-03-28T21:29:56.845Z,97.60
2023-03-28T21:32:23.672Z,97.70
2023-03-28T21:34:56.367Z,97.80
2023-03-28T21:37:23.476Z,98.00
2023-03-28T21:39:50.209Z,98.50
2023-03-28T21:42:16.920Z,98.60
2023-03-28T21:44:43.655Z,98.60
2023-03-28T21:47:10.412Z,98.20
2023-03-28T21:49:37.640Z,98.10
2023-03-28T21:52:05.008Z,98.60
2023-03-28T21:54:32.149Z,98.50
2023-03-28T21:56:59.121Z,98.60
2023-03-28T21:59:26.299Z,98.60
2023-03-28T22:01:53.061Z,98.60
2023-03-28T22:04:19.886Z,98.70
2023-03-28T22:06:46.621Z,99.10
2023-03-28T22:09:13.797Z,98.70
2023-03-28T22:11:40.645Z,98.20
2023-03-28T22:14:08.298Z,98.30
2023-03-28T22:16:37.998Z,98.90
2023-03-28T22:19:06.810Z,99.60
2023-03-28T22:21:33.736Z,99.80
2023-03-28T22:24:03.632Z,99.90
2023-03-28T22:26:30.984Z,99.80
2023-03-28T22:28:59.469Z,99.90
2023-03-28T22:31:27.134Z,99.90
2023-03-28T22:33:54.519Z,99.90
2023-03-28T22:36:21.536Z,99.90
2023-03-28T22:38:48.463Z,99.90
2023-03-28T22:41:15.744Z,99.90
2023-03-28T22:43:42.837Z,99.90
2023-03-28T22:46:16.163Z,99.90
2023-03-28T22:48:44.110Z,99.90
2023-03-28T22:51:15.719Z,99.90
2023-03-28T22:53:42.517Z,99.90
2023-03-28T22:56:09.541Z,99.90
2023-03-28T22:58:36.957Z,99.90
2023-03-28T23:01:04.389Z,99.90
2023-03-28T23:03:31.191Z,99.90
2023-03-28T23:06:01.938Z,99.90
2023-03-28T23:08:28.763Z,99.90
2023-03-28T23:10:55.761Z,99.90
2023-03-28T23:13:22.506Z,99.90
2023-03-28T23:15:49.363Z,99.90
2023-03-28T23:18:16.440Z,99.90
2023-03-28T23:20:49.639Z,99.90
2023-03-28T23:23:17.101Z,99.90
2023-03-28T23:25:45.587Z,99.90
2023-03-28T23:28:12.391Z,99.90
2023-03-28T23:30:39.319Z,99.90
2023-03-28T23:33:06.344Z,99.90
2023-03-28T23:35:33.253Z,99.90
2023-03-28T23:38:00.029Z,99.90
2023-03-28T23:40:27.051Z,99.90
2023-03-28T23:42:53.803Z,99.90
2023-03-28T23:45:20.572Z,99.90
2023-03-28T23:47:47.294Z,99.90
2023-03-28T23:50:14.255Z,99.90
2023-03-28T23:52:41.101Z,99.90
2023-03-28T23:55:09.001Z,99.90
2023-03-28T23:57:36.230Z,99.90
